sensor_id;sensor_type;location;lat;lon;timestamp;P1;durP1;ratioP1;P2;durP2;ratioP2
61373;SDS011;47242;48.158;-1.586;2022-12-18T05:31:31;9.73;;;8.43;;
61373;SDS011;47242;48.158;-1.586;2022-12-18T05:33:57;17.45;;;9.70;;
61373;SDS011;47242;48.158;-1.586;2022-12-18T05:36:23;17.40;;;10.80;;
61373;SDS011;47242;48.158;-1.586;2022-12-18T05:38:48;18.15;;;11.60;;
61373;SDS011;47242;48.158;-1.586;2022-12-18T05:41:14;12.75;;;8.18;;
61373;SDS011;47242;48.158;-1.586;2022-12-18T05:43:40;17.25;;;9.55;;
61373;SDS011;47242;48.158;-1.586;2022-12-18T05:46:24;9.23;;;6.10;;
61373;SDS011;47242;48.158;-1.586;2022-12-18T05:48:50;14.68;;;7.68;;
61373;SDS011;47242;48.158;-1.586;2022-12-18T05:51:16;14.25;;;9.30;;
61373;SDS011;47242;48.158;-1.586;2022-12-18T05:53:44;16.15;;;9.65;;
61373;SDS011;47242;48.158;-1.586;2022-12-18T05:56:15;18.83;;;10.23;;
61373;SDS011;47242;48.158;-1.586;2022-12-18T05:58:43;15.43;;;7.38;;
61373;SDS011;47242;48.158;-1.586;2022-12-18T06:01:10;8.77;;;6.53;;
61373;SDS011;47242;48.158;-1.586;2022-12-18T06:03:38;14.68;;;9.57;;
61373;SDS011;47242;48.158;-1.586;2022-12-18T06:06:04;18.52;;;11.07;;
61373;SDS011;47242;48.158;-1.586;2022-12-18T06:08:37;22.73;;;13.27;;
61373;SDS011;47242;48.158;-1.586;2022-12-18T06:11:03;17.10;;;8.23;;
61373;SDS011;47242;48.158;-1.586;2022-12-18T06:13:28;16.60;;;9.90;;
61373;SDS011;47242;48.158;-1.586;2022-12-18T06:15:54;15.15;;;7.95;;
61373;SDS011;47242;48.158;-1.586;2022-12-18T06:18:20;13.07;;;8.80;;
61373;SDS011;47242;48.158;-1.586;2022-12-18T06:20:53;17.83;;;10.02;;
61373;SDS011;47242;48.158;-1.586;2022-12-18T06:23:23;12.48;;;7.97;;
61373;SDS011;47242;48.158;-1.586;2022-12-18T06:25:49;13.50;;;7.38;;
61373;SDS011;47242;48.158;-1.586;2022-12-18T06:28:15;10.40;;;6.75;;
61373;SDS011;47242;48.158;-1.586;2022-12-18T06:30:44;8.52;;;5.75;;
61373;SDS011;47242;48.158;-1.586;2022-12-18T06:33:11;22.75;;;12.80;;
61373;SDS011;47242;48.158;-1.586;2022-12-18T06:35:36;9.10;;;6.82;;
61373;SDS011;47242;48.158;-1.586;2022-12-18T06:38:02;14.50;;;9.85;;
61373;SDS011;47242;48.158;-1.586;2022-12-18T06:40:28;11.82;;;6.68;;
61373;SDS011;47242;48.158;-1.586;2022-12-18T06:42:54;20.20;;;10.73;;
61373;SDS011;47242;48.158;-1.586;2022-12-18T06:45:19;15.98;;;10.50;;
61373;SDS011;47242;48.158;-1.586;2022-12-18T06:47:45;20.35;;;11.60;;
61373;SDS011;47242;48.158;-1.586;2022-12-18T06:50:11;11.45;;;8.15;;
61373;SDS011;47242;48.158;-1.586;2022-12-18T06:52:37;11.07;;;7.00;;
61373;SDS011;47242;48.158;-1.586;2022-12-18T06:55:05;11.60;;;8.02;;
61373;SDS011;47242;48.158;-1.586;2022-12-18T06:57:34;12.53;;;8.10;;
61373;SDS011;47242;48.158;-1.586;2022-12-18T07:00:00;13.95;;;8.48;;
61373;SDS011;47242;48.158;-1.586;2022-12-18T07:02:26;13.00;;;8.65;;
61373;SDS011;47242;48.158;-1.586;2022-12-18T07:04:51;11.57;;;8.55;;
61373;SDS011;47242;48.158;-1.586;2022-12-18T07:07:17;24.73;;;11.27;;
61373;SDS011;47242;48.158;-1.586;2022-12-18T07:09:42;10.05;;;7.70;;
61373;SDS011;47242;48.158;-1.586;2022-12-18T07:12:08;16.88;;;8.68;;
61373;SDS011;47242;48.158;-1.586;2022-12-18T07:14:36;8.95;;;5.97;;
61373;SDS011;47242;48.158;-1.586;2022-12-18T07:17:02;8.73;;;6.63;;
61373;SDS011;47242;48.158;-1.586;2022-12-18T07:19:28;11.43;;;8.32;;
61373;SDS011;47242;48.158;-1.586;2022-12-18T07:21:54;17.70;;;9.48;;
61373;SDS011;47242;48.158;-1.586;2022-12-18T07:24:20;10.38;;;7.57;;
61373;SDS011;47242;48.158;-1.586;2022-12-18T07:26:46;15.95;;;10.13;;
61373;SDS011;47242;48.158;-1.586;2022-12-18T07:29:11;11.70;;;7.60;;
61373;SDS011;47242;48.158;-1.586;2022-12-18T07:31:38;11.27;;;7.60;;
61373;SDS011;47242;48.158;-1.586;2022-12-18T07:34:03;18.70;;;12.40;;
61373;SDS011;47242;48.158;-1.586;2022-12-18T07:36:29;12.63;;;7.00;;
61373;SDS011;47242;48.158;-1.586;2022-12-18T07:38:55;8.32;;;7.45;;
61373;SDS011;47242;48.158;-1.586;2022-12-18T07:41:21;13.95;;;9.73;;
61373;SDS011;47242;48.158;-1.586;2022-12-18T07:43:47;13.27;;;9.80;;
61373;SDS011;47242;48.158;-1.586;2022-12-18T07:46:13;18.80;;;10.30;;
61373;SDS011;47242;48.158;-1.586;2022-12-18T07:48:42;15.27;;;8.55;;
61373;SDS011;47242;48.158;-1.586;2022-12-18T07:51:08;19.65;;;11.23;;
61373;SDS011;47242;48.158;-1.586;2022-12-18T07:53:37;14.20;;;7.40;;
61373;SDS011;47242;48.158;-1.586;2022-12-18T07:56:04;11.57;;;8.73;;
61373;SDS011;47242;48.158;-1.586;2022-12-18T07:58:35;17.60;;;10.98;;
61373;SDS011;47242;48.158;-1.586;2022-12-18T08:01:02;17.55;;;8.23;;
61373;SDS011;47242;48.158;-1.586;2022-12-18T08:03:35;10.82;;;7.82;;
61373;SDS011;47242;48.158;-1.586;2022-12-18T08:06:05;20.25;;;10.13;;
61373;SDS011;47242;48.158;-1.586;2022-12-18T08:08:41;27.25;;;13.45;;
61373;SDS011;47242;48.158;-1.586;2022-12-18T08:11:07;17.35;;;11.10;;
61373;SDS011;47242;48.158;-1.586;2022-12-18T08:13:33;24.38;;;13.38;;
61373;SDS011;47242;48.158;-1.586;2022-12-18T08:16:01;15.77;;;9.93;;
61373;SDS011;47242;48.158;-1.586;2022-12-18T08:18:29;11.15;;;7.63;;
61373;SDS011;47242;48.158;-1.586;2022-12-18T08:21:13;20.58;;;11.13;;
61373;SDS011;47242;48.158;-1.586;2022-12-18T08:23:39;17.23;;;9.32;;
61373;SDS011;47242;48.158;-1.586;2022-12-18T08:26:05;17.48;;;10.07;;
61373;SDS011;47242;48.158;-1.586;2022-12-18T08:28:31;17.48;;;9.10;;
61373;SDS011;47242;48.158;-1.586;2022-12-18T08:30:58;21.13;;;12.77;;
61373;SDS011;47242;48.158;-1.586;2022-12-18T08:33:24;20.17;;;11.70;;
61373;SDS011;47242;48.158;-1.586;2022-12-18T08:35:50;22.98;;;12.77;;
61373;SDS011;47242;48.158;-1.586;2022-12-18T08:38:15;13.40;;;9.45;;
61373;SDS011;47242;48.158;-1.586;2022-12-18T08:40:41;29.55;;;17.40;;
61373;SDS011;47242;48.158;-1.586;2022-12-18T08:43:07;30.38;;;15.05;;
61373;SDS011;47242;48.158;-1.586;2022-12-18T08:45:54;11.98;;;7.88;;
61373;SDS011;47242;48.158;-1.586;2022-12-18T08:48:19;17.90;;;10.50;;
61373;SDS011;47242;48.158;-1.586;2022-12-18T08:51:03;20.25;;;10.35;;
61373;SDS011;47242;48.158;-1.586;2022-12-18T08:53:29;17.88;;;11.35;;
61373;SDS011;47242;48.158;-1.586;2022-12-18T08:55:55;14.65;;;8.65;;
61373;SDS011;47242;48.158;-1.586;2022-12-18T08:58:21;16.65;;;10.15;;
61373;SDS011;47242;48.158;-1.586;2022-12-18T09:00:47;9.07;;;6.70;;
61373;SDS011;47242;48.158;-1.586;2022-12-18T09:03:13;19.40;;;12.23;;
61373;SDS011;47242;48.158;-1.586;2022-12-18T09:05:40;16.55;;;10.63;;
61373;SDS011;47242;48.158;-1.586;2022-12-18T09:08:06;20.65;;;9.95;;
61373;SDS011;47242;48.158;-1.586;2022-12-18T09:10:32;20.25;;;10.20;;
61373;SDS011;47242;48.158;-1.586;2022-12-18T09:12:57;21.90;;;10.38;;
61373;SDS011;47242;48.158;-1.586;2022-12-18T09:15:23;22.88;;;13.68;;
61373;SDS011;47242;48.158;-1.586;2022-12-18T09:17:49;11.85;;;7.72;;
61373;SDS011;47242;48.158;-1.586;2022-12-18T09:20:15;12.48;;;7.85;;
61373;SDS011;47242;48.158;-1.586;2022-12-18T09:22:41;15.75;;;10.98;;
61373;SDS011;47242;48.158;-1.586;2022-12-18T09:25:07;15.73;;;8.65;;
61373;SDS011;47242;48.158;-1.586;2022-12-18T09:27:33;21.30;;;10.65;;
61373;SDS011;47242;48.158;-1.586;2022-12-18T09:29:59;14.73;;;7.85;;
61373;SDS011;47242;48.158;-1.586;2022-12-18T09:32:25;16.73;;;9.57;;
61373;SDS011;47242;48.158;-1.586;2022-12-18T09:34:51;16.10;;;9.07;;
61373;SDS011;47242;48.158;-1.586;2022-12-18T09:37:16;15.70;;;9.38;;
61373;SDS011;47242;48.158;-1.586;2022-12-18T09:39:42;13.82;;;8.57;;
61373;SDS011;47242;48.158;-1.586;2022-12-18T09:42:10;22.85;;;7.00;;
61373;SDS011;47242;48.158;-1.586;2022-12-18T09:44:45;18.35;;;10.48;;
61373;SDS011;47242;48.158;-1.586;2022-12-18T09:47:21;23.42;;;13.45;;
61373;SDS011;47242;48.158;-1.586;2022-12-18T09:49:53;12.63;;;8.05;;
61373;SDS011;47242;48.158;-1.586;2022-12-18T09:52:42;23.42;;;10.75;;
61373;SDS011;47242;48.158;-1.586;2022-12-18T09:55:16;20.10;;;10.55;;
61373;SDS011;47242;48.158;-1.586;2022-12-18T09:57:51;21.45;;;10.10;;
61373;SDS011;47242;48.158;-1.586;2022-12-18T10:00:22;20.15;;;8.48;;
61373;SDS011;47242;48.158;-1.586;2022-12-18T10:02:50;20.33;;;10.73;;
61373;SDS011;47242;48.158;-1.586;2022-12-18T10:05:30;14.68;;;7.88;;
61373;SDS011;47242;48.158;-1.586;2022-12-18T10:08:25;19.60;;;9.02;;
61373;SDS011;47242;48.158;-1.586;2022-12-18T10:11:03;16.30;;;9.95;;
61373;SDS011;47242;48.158;-1.586;2022-12-18T10:13:52;22.25;;;10.27;;
61373;SDS011;47242;48.158;-1.586;2022-12-18T10:16:31;11.30;;;6.75;;
61373;SDS011;47242;48.158;-1.586;2022-12-18T10:19:45;26.98;;;12.88;;
61373;SDS011;47242;48.158;-1.586;2022-12-18T10:28:15;15.18;;;11.55;;
61373;SDS011;47242;48.158;-1.586;2022-12-18T10:30:43;13.20;;;9.13;;
61373;SDS011;47242;48.158;-1.586;2022-12-18T10:33:19;26.02;;;13.10;;
61373;SDS011;47242;48.158;-1.586;2022-12-18T10:35:48;17.05;;;10.40;;
61373;SDS011;47242;48.158;-1.586;2022-12-18T10:40:59;14.85;;;9.43;;
61373;SDS011;47242;48.158;-1.586;2022-12-18T10:46:04;18.90;;;9.68;;
61373;SDS011;47242;48.158;-1.586;2022-12-18T10:48:39;17.75;;;9.10;;
61373;SDS011;47242;48.158;-1.586;2022-12-18T10:51:05;22.95;;;10.77;;
61373;SDS011;47242;48.158;-1.586;2022-12-18T10:53:33;18.35;;;10.90;;
61373;SDS011;47242;48.158;-1.586;2022-12-18T10:56:00;13.80;;;9.80;;
61373;SDS011;47242;48.158;-1.586;2022-12-18T10:58:28;11.73;;;8.32;;
61373;SDS011;47242;48.158;-1.586;2022-12-18T11:01:18;34.75;;;16.02;;
61373;SDS011;47242;48.158;-1.586;2022-12-18T11:03:59;18.60;;;12.70;;
61373;SDS011;47242;48.158;-1.586;2022-12-18T11:11:26;21.83;;;11.45;;
61373;SDS011;47242;48.158;-1.586;2022-12-18T11:14:00;16.23;;;11.05;;
61373;SDS011;47242;48.158;-1.586;2022-12-18T11:16:33;26.20;;;12.93;;
61373;SDS011;47242;48.158;-1.586;2022-12-18T11:19:26;14.48;;;10.07;;
61373;SDS011;47242;48.158;-1.586;2022-12-18T11:22:26;11.32;;;9.27;;
61373;SDS011;47242;48.158;-1.586;2022-12-18T11:27:36;16.30;;;8.10;;
61373;SDS011;47242;48.158;-1.586;2022-12-18T11:30:07;16.85;;;10.15;;
61373;SDS011;47242;48.158;-1.586;2022-12-18T11:32:46;15.60;;;10.70;;
61373;SDS011;47242;48.158;-1.586;2022-12-18T11:35:37;21.02;;;12.10;;
61373;SDS011;47242;48.158;-1.586;2022-12-18T11:38:12;15.45;;;10.45;;
61373;SDS011;47242;48.158;-1.586;2022-12-18T11:40:45;21.38;;;9.13;;
61373;SDS011;47242;48.158;-1.586;2022-12-18T11:43:18;16.88;;;10.55;;
61373;SDS011;47242;48.158;-1.586;2022-12-18T11:45:53;17.35;;;11.68;;
61373;SDS011;47242;48.158;-1.586;2022-12-18T11:48:25;16.63;;;10.93;;
61373;SDS011;47242;48.158;-1.586;2022-12-18T11:50:58;19.35;;;11.32;;
61373;SDS011;47242;48.158;-1.586;2022-12-18T11:53:27;17.35;;;10.60;;
61373;SDS011;47242;48.158;-1.586;2022-12-18T12:04:03;20.42;;;12.02;;
61373;SDS011;47242;48.158;-1.586;2022-12-18T12:15:54;21.65;;;11.63;;
61373;SDS011;47242;48.158;-1.586;2022-12-18T12:39:30;32.42;;;16.52;;
61373;SDS011;47242;48.158;-1.586;2022-12-18T12:42:02;19.85;;;11.27;;
61373;SDS011;47242;48.158;-1.586;2022-12-18T12:44:54;27.60;;;16.42;;
61373;SDS011;47242;48.158;-1.586;2022-12-18T12:47:31;39.40;;;20.05;;
61373;SDS011;47242;48.158;-1.586;2022-12-18T12:50:06;29.50;;;17.23;;
61373;SDS011;47242;48.158;-1.586;2022-12-18T12:52:43;39.85;;;18.95;;
61373;SDS011;47242;48.158;-1.586;2022-12-18T12:55:19;35.45;;;17.20;;
61373;SDS011;47242;48.158;-1.586;2022-12-18T13:00:22;24.55;;;14.20;;
61373;SDS011;47242;48.158;-1.586;2022-12-18T13:06:12;35.53;;;17.60;;
61373;SDS011;47242;48.158;-1.586;2022-12-18T13:08:12;33.78;;;15.35;;
61373;SDS011;47242;48.158;-1.586;2022-12-18T13:10:58;18.45;;;11.43;;
61373;SDS011;47242;48.158;-1.586;2022-12-18T13:13:50;23.13;;;14.77;;
61373;SDS011;47242;48.158;-1.586;2022-12-18T13:16:18;24.38;;;13.80;;
61373;SDS011;47242;48.158;-1.586;2022-12-18T13:18:52;25.27;;;12.52;;
61373;SDS011;47242;48.158;-1.586;2022-12-18T13:21:27;28.15;;;14.60;;
61373;SDS011;47242;48.158;-1.586;2022-12-18T13:23:55;31.15;;;14.70;;
61373;SDS011;47242;48.158;-1.586;2022-12-18T13:34:32;27.98;;;15.95;;
61373;SDS011;47242;48.158;-1.586;2022-12-18T13:36:52;21.80;;;16.00;;
61373;SDS011;47242;48.158;-1.586;2022-12-18T13:42:37;31.95;;;16.95;;
61373;SDS011;47242;48.158;-1.586;2022-12-18T13:44:40;28.08;;;16.13;;
61373;SDS011;47242;48.158;-1.586;2022-12-18T13:49:58;22.38;;;12.65;;
61373;SDS011;47242;48.158;-1.586;2022-12-18T13:52:26;36.22;;;17.08;;
61373;SDS011;47242;48.158;-1.586;2022-12-18T13:54:58;29.67;;;16.20;;
61373;SDS011;47242;48.158;-1.586;2022-12-18T13:57:33;25.38;;;13.57;;
61373;SDS011;47242;48.158;-1.586;2022-12-18T14:00:45;32.30;;;15.82;;
61373;SDS011;47242;48.158;-1.586;2022-12-18T14:02:51;17.80;;;12.60;;
61373;SDS011;47242;48.158;-1.586;2022-12-18T14:08:04;32.25;;;16.13;;
61373;SDS011;47242;48.158;-1.586;2022-12-18T14:10:34;35.22;;;15.55;;
61373;SDS011;47242;48.158;-1.586;2022-12-18T14:13:05;41.13;;;18.55;;
61373;SDS011;47242;48.158;-1.586;2022-12-18T14:20:34;20.08;;;12.35;;
61373;SDS011;47242;48.158;-1.586;2022-12-18T14:23:00;34.63;;;18.77;;
61373;SDS011;47242;48.158;-1.586;2022-12-18T14:25:27;30.65;;;18.15;;
61373;SDS011;47242;48.158;-1.586;2022-12-18T14:30:35;30.48;;;16.83;;
61373;SDS011;47242;48.158;-1.586;2022-12-18T14:35:42;21.03;;;13.43;;
61373;SDS011;47242;48.158;-1.586;2022-12-18T14:40:51;20.33;;;13.23;;
61373;SDS011;47242;48.158;-1.586;2022-12-18T14:43:25;29.75;;;16.83;;
61373;SDS011;47242;48.158;-1.586;2022-12-18T14:45:52;14.45;;;10.13;;
61373;SDS011;47242;48.158;-1.586;2022-12-18T14:48:20;23.90;;;14.15;;
61373;SDS011;47242;48.158;-1.586;2022-12-18T14:50:53;29.30;;;15.82;;
61373;SDS011;47242;48.158;-1.586;2022-12-18T14:53:32;30.65;;;15.00;;
61373;SDS011;47242;48.158;-1.586;2022-12-18T14:56:27;34.17;;;16.00;;
61373;SDS011;47242;48.158;-1.586;2022-12-18T14:58:53;29.98;;;16.65;;
61373;SDS011;47242;48.158;-1.586;2022-12-18T15:01:28;25.88;;;14.75;;
61373;SDS011;47242;48.158;-1.586;2022-12-18T15:03:57;29.83;;;17.10;;
61373;SDS011;47242;48.158;-1.586;2022-12-18T15:06:42;21.63;;;13.30;;
61373;SDS011;47242;48.158;-1.586;2022-12-18T15:09:24;25.00;;;13.07;;
61373;SDS011;47242;48.158;-1.586;2022-12-18T15:11:55;29.88;;;14.82;;
61373;SDS011;47242;48.158;-1.586;2022-12-18T15:14:41;27.75;;;15.68;;
61373;SDS011;47242;48.158;-1.586;2022-12-18T15:17:17;20.08;;;11.07;;
61373;SDS011;47242;48.158;-1.586;2022-12-18T15:19:45;30.77;;;15.25;;
61373;SDS011;47242;48.158;-1.586;2022-12-18T15:22:29;22.05;;;12.02;;
61373;SDS011;47242;48.158;-1.586;2022-12-18T15:24:59;28.92;;;15.75;;
61373;SDS011;47242;48.158;-1.586;2022-12-18T15:27:32;25.65;;;13.70;;
61373;SDS011;47242;48.158;-1.586;2022-12-18T15:32:35;29.73;;;16.48;;
61373;SDS011;47242;48.158;-1.586;2022-12-18T15:35:23;18.05;;;10.13;;
61373;SDS011;47242;48.158;-1.586;2022-12-18T15:37:49;22.88;;;13.25;;
61373;SDS011;47242;48.158;-1.586;2022-12-18T15:40:20;28.13;;;13.25;;
61373;SDS011;47242;48.158;-1.586;2022-12-18T15:42:47;33.53;;;15.95;;
61373;SDS011;47242;48.158;-1.586;2022-12-18T15:45:32;21.38;;;12.13;;
61373;SDS011;47242;48.158;-1.586;2022-12-18T15:47:58;17.17;;;10.32;;
61373;SDS011;47242;48.158;-1.586;2022-12-18T15:50:24;16.33;;;9.73;;
61373;SDS011;47242;48.158;-1.586;2022-12-18T15:52:51;32.88;;;14.88;;
61373;SDS011;47242;48.158;-1.586;2022-12-18T15:55:22;22.48;;;11.88;;
61373;SDS011;47242;48.158;-1.586;2022-12-18T15:58:08;22.63;;;12.40;;
61373;SDS011;47242;48.158;-1.586;2022-12-18T16:00:36;12.48;;;9.70;;
61373;SDS011;47242;48.158;-1.586;2022-12-18T16:03:04;20.95;;;11.65;;
61373;SDS011;47242;48.158;-1.586;2022-12-18T16:05:30;17.90;;;12.63;;
61373;SDS011;47242;48.158;-1.586;2022-12-18T16:07:56;19.92;;;13.40;;
61373;SDS011;47242;48.158;-1.586;2022-12-18T16:10:23;16.48;;;8.05;;
61373;SDS011;47242;48.158;-1.586;2022-12-18T16:12:51;17.98;;;9.75;;
61373;SDS011;47242;48.158;-1.586;2022-12-18T16:15:17;20.63;;;10.40;;
61373;SDS011;47242;48.158;-1.586;2022-12-18T16:17:43;14.77;;;7.85;;
61373;SDS011;47242;48.158;-1.586;2022-12-18T16:20:12;15.45;;;8.18;;
61373;SDS011;47242;48.158;-1.586;2022-12-18T16:22:43;16.35;;;9.15;;
61373;SDS011;47242;48.158;-1.586;2022-12-18T16:25:22;16.20;;;8.32;;
61373;SDS011;47242;48.158;-1.586;2022-12-18T16:27:50;19.67;;;11.27;;
61373;SDS011;47242;48.158;-1.586;2022-12-18T16:30:24;8.40;;;7.20;;
61373;SDS011;47242;48.158;-1.586;2022-12-18T16:32:52;14.98;;;7.32;;
61373;SDS011;47242;48.158;-1.586;2022-12-18T16:35:22;14.48;;;9.50;;
61373;SDS011;47242;48.158;-1.586;2022-12-18T16:37:48;14.30;;;6.55;;
61373;SDS011;47242;48.158;-1.586;2022-12-18T16:40:15;13.95;;;8.82;;
61373;SDS011;47242;48.158;-1.586;2022-12-18T16:42:42;19.20;;;9.05;;
61373;SDS011;47242;48.158;-1.586;2022-12-18T16:45:10;16.20;;;9.48;;
61373;SDS011;47242;48.158;-1.586;2022-12-18T16:47:38;14.23;;;9.20;;
61373;SDS011;47242;48.158;-1.586;2022-12-18T16:50:04;13.05;;;6.95;;
61373;SDS011;47242;48.158;-1.586;2022-12-18T16:52:31;10.75;;;7.18;;
61373;SDS011;47242;48.158;-1.586;2022-12-18T16:54:57;17.50;;;10.20;;
61373;SDS011;47242;48.158;-1.586;2022-12-18T16:57:22;15.93;;;8.70;;
61373;SDS011;47242;48.158;-1.586;2022-12-18T16:59:48;12.00;;;8.20;;
61373;SDS011;47242;48.158;-1.586;2022-12-18T17:02:15;14.13;;;9.38;;
61373;SDS011;47242;48.158;-1.586;2022-12-18T17:04:43;9.68;;;6.78;;
61373;SDS011;47242;48.158;-1.586;2022-12-18T17:07:09;9.13;;;6.35;;
61373;SDS011;47242;48.158;-1.586;2022-12-18T17:09:35;9.73;;;6.47;;
61373;SDS011;47242;48.158;-1.586;2022-12-18T17:12:02;8.13;;;4.93;;
61373;SDS011;47242;48.158;-1.586;2022-12-18T17:14:28;13.82;;;9.05;;
61373;SDS011;47242;48.158;-1.586;2022-12-18T17:16:54;12.75;;;8.52;;
61373;SDS011;47242;48.158;-1.586;2022-12-18T17:19:21;13.05;;;8.38;;
61373;SDS011;47242;48.158;-1.586;2022-12-18T17:21:48;15.73;;;9.13;;
61373;SDS011;47242;48.158;-1.586;2022-12-18T17:24:15;19.08;;;7.47;;
61373;SDS011;47242;48.158;-1.586;2022-12-18T17:26:43;13.48;;;8.60;;
61373;SDS011;47242;48.158;-1.586;2022-12-18T17:29:14;6.20;;;5.05;;
61373;SDS011;47242;48.158;-1.586;2022-12-18T17:31:41;6.03;;;5.30;;
61373;SDS011;47242;48.158;-1.586;2022-12-18T17:34:08;12.95;;;7.60;;
61373;SDS011;47242;48.158;-1.586;2022-12-18T17:36:35;13.63;;;7.72;;
61373;SDS011;47242;48.158;-1.586;2022-12-18T17:39:01;15.25;;;8.63;;
61373;SDS011;47242;48.158;-1.586;2022-12-18T17:41:28;12.57;;;6.35;;
61373;SDS011;47242;48.158;-1.586;2022-12-18T17:43:58;18.40;;;9.40;;
61373;SDS011;47242;48.158;-1.586;2022-12-18T17:46:26;18.33;;;8.30;;
61373;SDS011;47242;48.158;-1.586;2022-12-18T17:48:56;10.25;;;7.55;;
61373;SDS011;47242;48.158;-1.586;2022-12-18T17:51:23;21.30;;;9.93;;
61373;SDS011;47242;48.158;-1.586;2022-12-18T17:53:49;9.85;;;5.90;;
61373;SDS011;47242;48.158;-1.586;2022-12-18T17:56:16;13.38;;;8.10;;
61373;SDS011;47242;48.158;-1.586;2022-12-18T17:58:43;23.65;;;10.52;;
61373;SDS011;47242;48.158;-1.586;2022-12-18T18:01:11;9.10;;;7.03;;
61373;SDS011;47242;48.158;-1.586;2022-12-18T18:04:00;8.47;;;6.10;;
61373;SDS011;47242;48.158;-1.586;2022-12-18T18:06:26;12.80;;;7.40;;
61373;SDS011;47242;48.158;-1.586;2022-12-18T18:08:52;12.70;;;6.93;;
61373;SDS011;47242;48.158;-1.586;2022-12-18T18:11:18;15.07;;;7.85;;
61373;SDS011;47242;48.158;-1.586;2022-12-18T18:14:05;13.32;;;7.57;;
61373;SDS011;47242;48.158;-1.586;2022-12-18T18:16:39;10.27;;;5.95;;
61373;SDS011;47242;48.158;-1.586;2022-12-18T18:19:07;10.02;;;5.78;;
61373;SDS011;47242;48.158;-1.586;2022-12-18T18:21:37;10.50;;;5.15;;
61373;SDS011;47242;48.158;-1.586;2022-12-18T18:24:05;13.00;;;7.85;;
61373;SDS011;47242;48.158;-1.586;2022-12-18T18:26:31;10.07;;;6.55;;
61373;SDS011;47242;48.158;-1.586;2022-12-18T18:29:01;8.05;;;5.10;;
61373;SDS011;47242;48.158;-1.586;2022-12-18T18:31:28;13.10;;;6.65;;
61373;SDS011;47242;48.158;-1.586;2022-12-18T18:33:54;7.35;;;4.57;;
61373;SDS011;47242;48.158;-1.586;2022-12-18T18:36:21;18.52;;;6.47;;
61373;SDS011;47242;48.158;-1.586;2022-12-18T18:38:48;12.02;;;6.43;;
61373;SDS011;47242;48.158;-1.586;2022-12-18T18:41:14;8.80;;;4.68;;
61373;SDS011;47242;48.158;-1.586;2022-12-18T18:43:40;10.18;;;6.35;;
61373;SDS011;47242;48.158;-1.586;2022-12-18T18:46:06;13.07;;;7.75;;
61373;SDS011;47242;48.158;-1.586;2022-12-18T18:48:35;13.82;;;7.43;;
61373;SDS011;47242;48.158;-1.586;2022-12-18T18:51:03;7.15;;;5.22;;
61373;SDS011;47242;48.158;-1.586;2022-12-18T18:53:35;5.93;;;4.05;;
61373;SDS011;47242;48.158;-1.586;2022-12-18T18:56:02;16.20;;;7.25;;
61373;SDS011;47242;48.158;-1.586;2022-12-18T18:58:28;14.90;;;6.53;;
61373;SDS011;47242;48.158;-1.586;2022-12-18T19:01:00;13.13;;;8.32;;
61373;SDS011;47242;48.158;-1.586;2022-12-18T19:03:34;10.98;;;6.53;;
61373;SDS011;47242;48.158;-1.586;2022-12-18T19:06:01;9.82;;;5.15;;
61373;SDS011;47242;48.158;-1.586;2022-12-18T19:08:29;9.95;;;6.38;;
61373;SDS011;47242;48.158;-1.586;2022-12-18T19:10:58;6.90;;;4.65;;
61373;SDS011;47242;48.158;-1.586;2022-12-18T19:13:27;9.00;;;4.95;;
61373;SDS011;47242;48.158;-1.586;2022-12-18T19:16:02;10.60;;;5.80;;
61373;SDS011;47242;48.158;-1.586;2022-12-18T19:18:32;10.88;;;7.22;;
61373;SDS011;47242;48.158;-1.586;2022-12-18T19:20:59;12.32;;;7.07;;
61373;SDS011;47242;48.158;-1.586;2022-12-18T19:23:29;15.82;;;8.30;;
61373;SDS011;47242;48.158;-1.586;2022-12-18T19:26:05;9.88;;;6.68;;
61373;SDS011;47242;48.158;-1.586;2022-12-18T19:28:32;10.10;;;6.20;;
61373;SDS011;47242;48.158;-1.586;2022-12-18T19:30:59;14.32;;;7.75;;
61373;SDS011;47242;48.158;-1.586;2022-12-18T19:33:27;15.27;;;7.93;;
61373;SDS011;47242;48.158;-1.586;2022-12-18T19:35:54;11.23;;;7.85;;
61373;SDS011;47242;48.158;-1.586;2022-12-18T19:38:20;15.20;;;9.35;;
61373;SDS011;47242;48.158;-1.586;2022-12-18T19:40:48;8.32;;;6.68;;
61373;SDS011;47242;48.158;-1.586;2022-12-18T19:43:14;11.52;;;6.57;;
61373;SDS011;47242;48.158;-1.586;2022-12-18T19:45:40;10.45;;;6.43;;
61373;SDS011;47242;48.158;-1.586;2022-12-18T19:48:06;5.80;;;5.05;;
61373;SDS011;47242;48.158;-1.586;2022-12-18T19:50:32;13.35;;;5.43;;
61373;SDS011;47242;48.158;-1.586;2022-12-18T19:52:59;4.68;;;3.42;;
61373;SDS011;47242;48.158;-1.586;2022-12-18T19:55:24;12.93;;;7.45;;
61373;SDS011;47242;48.158;-1.586;2022-12-18T19:57:50;12.52;;;5.78;;
61373;SDS011;47242;48.158;-1.586;2022-12-18T20:00:16;10.32;;;5.85;;
61373;SDS011;47242;48.158;-1.586;2022-12-18T20:02:42;10.25;;;4.38;;
61373;SDS011;47242;48.158;-1.586;2022-12-18T20:05:09;9.32;;;5.15;;
61373;SDS011;47242;48.158;-1.586;2022-12-18T20:07:37;10.55;;;5.88;;
61373;SDS011;47242;48.158;-1.586;2022-12-18T20:10:03;8.73;;;5.68;;
61373;SDS011;47242;48.158;-1.586;2022-12-18T20:12:30;7.95;;;5.70;;
61373;SDS011;47242;48.158;-1.586;2022-12-18T20:14:59;13.32;;;6.10;;
61373;SDS011;47242;48.158;-1.586;2022-12-18T20:17:26;8.73;;;4.35;;
61373;SDS011;47242;48.158;-1.586;2022-12-18T20:19:52;6.82;;;4.07;;
61373;SDS011;47242;48.158;-1.586;2022-12-18T20:22:18;5.82;;;3.70;;
61373;SDS011;47242;48.158;-1.586;2022-12-18T20:24:43;9.15;;;5.78;;
61373;SDS011;47242;48.158;-1.586;2022-12-18T20:27:09;7.47;;;5.20;;
61373;SDS011;47242;48.158;-1.586;2022-12-18T20:29:35;6.28;;;4.10;;
61373;SDS011;47242;48.158;-1.586;2022-12-18T20:32:00;6.30;;;4.25;;
61373;SDS011;47242;48.158;-1.586;2022-12-18T20:34:31;8.30;;;4.82;;
61373;SDS011;47242;48.158;-1.586;2022-12-18T20:36:58;10.60;;;3.70;;
61373;SDS011;47242;48.158;-1.586;2022-12-18T20:39:23;6.32;;;4.30;;
61373;SDS011;47242;48.158;-1.586;2022-12-18T20:41:50;5.75;;;3.25;;
61373;SDS011;47242;48.158;-1.586;2022-12-18T20:44:16;9.60;;;5.13;;
61373;SDS011;47242;48.158;-1.586;2022-12-18T20:46:42;9.63;;;5.00;;
61373;SDS011;47242;48.158;-1.586;2022-12-18T20:49:08;10.32;;;5.35;;
61373;SDS011;47242;48.158;-1.586;2022-12-18T20:51:36;8.07;;;5.05;;
61373;SDS011;47242;48.158;-1.586;2022-12-18T20:54:02;9.77;;;5.15;;
61373;SDS011;47242;48.158;-1.586;2022-12-18T20:56:28;8.00;;;5.95;;
61373;SDS011;47242;48.158;-1.586;2022-12-18T20:58:57;10.57;;;5.82;;
61373;SDS011;47242;48.158;-1.586;2022-12-18T21:01:25;7.28;;;4.78;;
61373;SDS011;47242;48.158;-1.586;2022-12-18T21:03:54;11.48;;;4.57;;
61373;SDS011;47242;48.158;-1.586;2022-12-18T21:06:27;7.97;;;4.68;;
61373;SDS011;47242;48.158;-1.586;2022-12-18T21:08:53;7.95;;;5.63;;
61373;SDS011;47242;48.158;-1.586;2022-12-18T21:14:04;8.57;;;4.90;;
61373;SDS011;47242;48.158;-1.586;2022-12-18T21:16:32;6.38;;;3.00;;
61373;SDS011;47242;48.158;-1.586;2022-12-18T21:18:59;5.63;;;3.80;;
61373;SDS011;47242;48.158;-1.586;2022-12-18T21:21:25;7.57;;;4.90;;
61373;SDS011;47242;48.158;-1.586;2022-12-18T21:24:00;5.70;;;4.18;;
61373;SDS011;47242;48.158;-1.586;2022-12-18T21:26:26;8.95;;;5.20;;
61373;SDS011;47242;48.158;-1.586;2022-12-18T21:28:53;6.13;;;4.20;;
61373;SDS011;47242;48.158;-1.586;2022-12-18T21:31:23;10.13;;;5.00;;
61373;SDS011;47242;48.158;-1.586;2022-12-18T21:33:51;6.43;;;3.65;;
61373;SDS011;47242;48.158;-1.586;2022-12-18T21:36:17;7.72;;;4.75;;
61373;SDS011;47242;48.158;-1.586;2022-12-18T21:38:43;5.00;;;3.25;;
61373;SDS011;47242;48.158;-1.586;2022-12-18T21:41:09;5.78;;;3.88;;